Aviation Digital Data Service (ADDS)

Output produced by METARs form (2320 UTC 18 March 2018)
found at http://aviationweather.gov/adds/metars/
METAR text: KHDN 182256Z AUTO 30018G24KT 10SM BKN045 OVC050 01/M03 A2976 RMK AO2 SLP087 T00111033 FZRANO
Conditions at: KHDN (HAYDEN/YAMPA , CO, US) observed 2256 UTC 18 March 2018
Temperature: 1.1°C (34°F)
Dewpoint: -3.3°C (26°F) [RH = 72%]
Pressure (altimeter): 29.76 inches Hg (1007.9 mb)
[Sea-level pressure: 1008.7 mb]
Winds: from the WNW (300 degrees) at 21 MPH (18 knots; 9.4 m/s)
gusting to 28 MPH (24 knots; 12.5 m/s)
Visibility: 10 or more miles (16+ km)
Ceiling: 4500 feet AGL
Clouds: broken clouds at 4500 feet AGL
overcast cloud deck at 5000 feet AGL
Weather: automated observation with no human augmentation;
there may or may not be significant weather present at this time